Time;durP1;ratioP1;P1;durP2;ratioP2;P2;SDS_P1;SDS_P2;PMS_P1;PMS_P2;Temp;Humidity;BMP_temperature;BMP_pressure;BME280_temperature;BME280_humidity;BME280_pressure;Samples;Min_cycle;Max_cycle;Signal;HPM_P1;HPM_P2
2023/09/03 00:01:52;;;;;;;;;;;;;;;24.12;67.08;97514.41;592499;239;65190;-68
2023/09/03 00:04:19;;;;;;;;;;;;;;;24.12;66.92;97517.09;592488;239;62914;-68
2023/09/03 00:06:47;;;;;;;;;;;;;;;24.11;66.95;97510.89;592495;239;63957;-68
2023/09/03 00:09:16;;;;;;;;;;;;;;;24.11;66.92;97518.95;592451;239;64995;-68
2023/09/03 00:11:43;;;;;;;;;;;;;;;24.12;67.04;97515.20;592505;239;65055;-68
2023/09/03 00:14:11;;;;;;;;;;;;;;;24.11;67.11;97516.27;592484;239;66124;-65
2023/09/03 00:16:38;;;;;;;;;;;;;;;24.12;67.13;97519.77;594566;238;65085;-65
2023/09/03 00:19:06;;;;;;;;;;;;;;;24.11;67.16;97505.52;595041;238;64875;-65
2023/09/03 00:21:33;;;;;;;;;;;;;;;24.11;66.97;97510.09;595047;238;65714;-65
2023/09/03 00:24:01;;;;;;;;;;;;;;;24.10;66.85;97513.88;595055;238;65180;-68
2023/09/03 00:26:28;;;;;;;;;;;;;;;24.10;66.42;97520.04;595070;238;63910;-68
2023/09/03 00:28:58;;;;;;;;;;;;;;;24.10;67.00;97511.98;595074;238;41954;-68
2023/09/03 00:31:26;;;;;;;;;;;;;;;24.11;67.32;97518.16;588867;238;64792;-68
2023/09/03 00:33:54;;;;;;;;;;;;;;;24.10;66.69;97519.24;594915;238;65844;-68
2023/09/03 00:36:21;;;;;;;;;;;;;;;24.10;66.28;97521.93;594889;238;68172;-68
2023/09/03 00:38:49;;;;;;;;;;;;;;;24.10;65.90;97522.72;594937;238;67005;-68
2023/09/03 00:41:17;;;;;;;;;;;;;;;24.11;66.25;97524.31;594944;238;65773;-68
2023/09/03 00:43:45;;;;;;;;;;;;;;;24.10;66.49;97530.78;594884;238;67127;-68
2023/09/03 00:46:13;;;;;;;;;;;;;;;24.10;66.50;97517.35;594923;238;67254;-66
2023/09/03 00:48:41;;;;;;;;;;;;;;;24.10;66.81;97516.56;594937;238;62565;-65
2023/09/03 00:51:10;;;;;;;;;;;;;;;24.10;66.73;97503.92;594906;238;67321;-65
2023/09/03 00:53:39;;;;;;;;;;;;;;;24.09;66.26;97499.65;594934;238;67087;-65
2023/09/03 00:56:09;;;;;;;;;;;;;;;24.09;66.14;97505.02;594909;238;65156;-69
2023/09/03 00:58:37;;;;;;;;;;;;;;;24.09;66.28;97502.34;594907;238;66538;-68
2023/09/03 01:01:05;;;;;;;;;;;;;;;24.09;66.18;97493.45;594951;238;64770;-68
2023/09/03 01:03:32;;;;;;;;;;;;;;;24.09;66.52;97490.77;594875;238;62762;-68
2023/09/03 01:06:00;;;;;;;;;;;;;;;24.09;66.17;97496.97;594936;238;67397;-68
2023/09/03 01:08:28;;;;;;;;;;;;;;;24.08;66.15;97489.97;594898;238;67297;-66
2023/09/03 01:11:00;;;;;;;;;;;;;;;24.09;65.88;97490.77;594916;238;62682;-65
2023/09/03 01:13:29;;;;;;;;;;;;;;;24.08;65.84;97486.49;594936;238;67264;-65
2023/09/03 01:15:58;;;;;;;;;;;;;;;24.09;65.71;97488.08;594844;238;63012;-68
2023/09/03 01:18:27;;;;;;;;;;;;;;;24.08;65.69;97489.97;594918;238;64982;-68
2023/09/03 01:20:58;;;;;;;;;;;;;;;24.08;65.92;97487.29;594920;238;64783;-68
2023/09/03 01:23:42;;;;;;;;;;;;;;;24.08;65.90;97489.17;594933;238;67121;-65
2023/09/03 01:26:28;;;;;;;;;;;;;;;24.08;66.15;97487.29;594866;238;62677;-65
2023/09/03 01:28:56;;;;;;;;;;;;;;;24.08;65.93;97481.13;594912;238;64609;-65
2023/09/03 01:31:24;;;;;;;;;;;;;;;24.07;65.85;97482.21;594902;238;67104;-68
2023/09/03 01:33:52;;;;;;;;;;;;;;;24.07;66.01;97480.33;594903;238;62748;-68
2023/09/03 01:36:19;;;;;;;;;;;;;;;24.07;65.77;97485.70;594919;238;67493;-68
2023/09/03 01:38:47;;;;;;;;;;;;;;;24.06;65.68;97476.05;594868;238;66888;-68
2023/09/03 01:41:14;;;;;;;;;;;;;;;24.07;65.83;97477.64;594917;238;62677;-68
2023/09/03 01:43:42;;;;;;;;;;;;;;;24.06;65.62;97469.85;594903;238;67949;-68
2023/09/03 01:46:17;;;;;;;;;;;;;;;24.06;65.74;97476.05;594895;238;67394;-68
2023/09/03 01:48:47;;;;;;;;;;;;;;;24.06;65.84;97470.68;594849;238;65217;-68
2023/09/03 01:51:16;;;;;;;;;;;;;;;24.06;65.48;97467.17;594905;238;64638;-68
2023/09/03 01:53:48;;;;;;;;;;;;;;;24.07;65.81;97471.47;594883;238;67241;-68
2023/09/03 01:56:17;;;;;;;;;;;;;;;24.05;66.32;97471.73;594802;238;65247;-69
2023/09/03 01:58:46;;;;;;;;;;;;;;;24.06;66.23;97477.91;594892;238;67406;-68
2023/09/03 02:01:14;;;;;;;;;;;;;;;24.06;65.98;97472.53;594901;238;67038;-67
2023/09/03 02:03:45;;;;;;;;;;;;;;;24.06;66.11;97475.22;594920;238;62778;-67
2023/09/03 02:06:13;;;;;;;;;;;;;;;24.06;66.31;97472.53;594907;238;67998;-68
2023/09/03 02:08:40;;;;;;;;;;;;;;;24.05;66.43;97479.80;594931;238;67081;-68
2023/09/03 02:11:08;;;;;;;;;;;;;;;24.05;66.43;97477.11;594902;238;64961;-68
2023/09/03 02:13:35;;;;;;;;;;;;;;;24.05;66.23;97479.80;594919;238;64814;-68
2023/09/03 02:16:03;;;;;;;;;;;;;;;24.04;66.33;97480.89;594888;238;64272;-68
2023/09/03 02:18:31;;;;;;;;;;;;;;;24.04;66.33;97478.20;594881;238;65039;-68
2023/09/03 02:20:58;;;;;;;;;;;;;;;24.05;66.20;97476.31;594921;238;64806;-68
2023/09/03 02:23:26;;;;;;;;;;;;;;;24.04;66.24;97480.89;594874;238;67792;-65
2023/09/03 02:26:03;;;;;;;;;;;;;;;24.05;66.11;97492.42;594905;238;65221;-65
2023/09/03 02:28:30;;;;;;;;;;;;;;;24.04;66.17;97486.26;594917;238;67465;-65
2023/09/03 02:30:58;;;;;;;;;;;;;;;24.03;66.26;97481.95;594868;238;64691;-65
2023/09/03 02:33:26;;;;;;;;;;;;;;;24.03;66.10;97484.64;594907;238;62644;-65
2023/09/03 02:35:53;;;;;;;;;;;;;;;24.03;66.05;97483.84;588691;238;68208;-65
2023/09/03 02:38:21;;;;;;;;;;;;;;;24.04;66.18;97482.78;594907;238;64504;-65
2023/09/03 02:40:48;;;;;;;;;;;;;;;24.03;66.12;97478.47;594948;238;65206;-68
2023/09/03 02:43:16;;;;;;;;;;;;;;;24.02;66.17;97469.62;594883;238;66933;-67
2023/09/03 02:45:43;;;;;;;;;;;;;;;24.02;66.07;97477.67;594892;238;64506;-68
2023/09/03 02:48:11;;;;;;;;;;;;;;;24.02;65.87;97482.25;594868;238;65229;-68
2023/09/03 02:50:39;;;;;;;;;;;;;;;24.03;65.93;97483.84;594913;238;64851;-68
2023/09/03 02:53:07;;;;;;;;;;;;;;;24.02;65.93;97482.25;594909;238;67259;-68
2023/09/03 02:55:35;;;;;;;;;;;;;;;24.02;65.79;97483.05;594896;238;65226;-68
2023/09/03 02:58:02;;;;;;;;;;;;;;;24.02;65.78;97482.25;594876;238;67049;-68
2023/09/03 03:00:30;;;;;;;;;;;;;;;24.02;66.13;97483.05;594919;238;64682;-68
2023/09/03 03:02:57;;;;;;;;;;;;;;;24.01;65.92;97478.77;594897;238;65251;-68
2023/09/03 03:05:25;;;;;;;;;;;;;;;24.01;65.84;97480.63;594925;238;67182;-68
2023/09/03 03:07:55;;;;;;;;;;;;;;;24.02;65.66;97482.25;594907;238;67303;-68
2023/09/03 03:10:22;;;;;;;;;;;;;;;24.01;65.83;97478.77;594901;238;62163;-68
2023/09/03 03:12:49;;;;;;;;;;;;;;;24.01;65.83;97476.08;594884;238;67529;-68
2023/09/03 03:15:17;;;;;;;;;;;;;;;24.01;65.94;97478.77;594840;238;64617;-68
2023/09/03 03:17:45;;;;;;;;;;;;;;;24.01;65.87;97484.14;594910;238;65035;-65
2023/09/03 03:20:12;;;;;;;;;;;;;;;23.99;65.67;97475.55;595092;236;67162;-65
2023/09/03 03:22:40;;;;;;;;;;;;;;;24.01;65.55;97472.57;600794;236;67045;-65
2023/09/03 03:25:08;;;;;;;;;;;;;;;24.00;65.67;97471.77;601459;236;65194;-65
2023/09/03 03:27:37;;;;;;;;;;;;;;;24.00;65.78;97469.09;601502;236;67346;-65
2023/09/03 03:30:05;;;;;;;;;;;;;;;24.00;65.79;97469.09;601504;236;66498;-68
2023/09/03 03:32:33;;;;;;;;;;;;;;;24.00;65.60;97468.30;601512;236;62966;-68
2023/09/03 03:35:01;;;;;;;;;;;;;;;23.99;65.94;97467.50;601509;236;67032;-68
2023/09/03 03:37:29;;;;;;;;;;;;;;;23.99;65.75;97472.86;601466;236;67787;-68
2023/09/03 03:39:57;;;;;;;;;;;;;;;23.99;65.55;97467.50;601484;236;65000;-68
2023/09/03 03:42:24;;;;;;;;;;;;;;;24.00;65.92;97473.66;601489;236;64262;-68
2023/09/03 03:44:53;;;;;;;;;;;;;;;23.99;65.81;97478.23;601516;236;67275;-68
2023/09/03 03:47:20;;;;;;;;;;;;;;;23.99;65.70;97480.92;601516;236;65086;-65
2023/09/03 03:49:48;;;;;;;;;;;;;;;23.99;65.79;97472.86;601498;236;64409;-65
2023/09/03 03:52:15;;;;;;;;;;;;;;;23.99;65.70;97477.44;601483;236;67025;-65
2023/09/03 03:54:43;;;;;;;;;;;;;;;23.99;65.58;97466.70;601490;236;64996;-65
2023/09/03 03:57:11;;;;;;;;;;;;;;;23.99;65.65;97469.38;601491;236;66876;-65
2023/09/03 03:59:39;;;;;;;;;;;;;;;23.98;65.68;97473.13;601476;236;64851;-65
2023/09/03 04:02:06;;;;;;;;;;;;;;;23.98;65.53;97471.27;601460;236;66146;-65
2023/09/03 04:04:34;;;;;;;;;;;;;;;23.98;65.59;97471.27;601484;236;65348;-65
2023/09/03 04:07:02;;;;;;;;;;;;;;;23.97;65.45;97466.97;601461;236;67944;-65
2023/09/03 04:09:30;;;;;;;;;;;;;;;23.97;65.31;97475.02;601477;236;62331;-65
2023/09/03 04:11:58;;;;;;;;;;;;;;;23.98;65.96;97473.13;601477;236;64636;-65
2023/09/03 04:14:25;;;;;;;;;;;;;;;23.98;66.08;97470.45;601460;236;64495;-65
2023/09/03 04:16:53;;;;;;;;;;;;;;;23.98;66.22;97470.45;601452;236;65126;-65
2023/09/03 04:19:20;;;;;;;;;;;;;;;23.97;66.40;97466.97;601489;236;67068;-65
2023/09/03 04:21:48;;;;;;;;;;;;;;;23.97;65.99;97466.97;601474;236;64686;-65
2023/09/03 04:24:16;;;;;;;;;;;;;;;23.97;66.03;97466.17;601481;236;65687;-65
2023/09/03 04:26:44;;;;;;;;;;;;;;;23.97;65.80;97471.54;601469;236;67375;-65
2023/09/03 04:29:12;;;;;;;;;;;;;;;23.96;65.78;97470.74;601518;236;66818;-65
2023/09/03 04:31:40;;;;;;;;;;;;;;;23.96;65.69;97468.06;601481;236;65211;-65
2023/09/03 04:34:08;;;;;;;;;;;;;;;23.96;65.58;97473.43;601517;236;64888;-65
2023/09/03 04:36:36;;;;;;;;;;;;;;;23.96;65.10;97467.27;601527;236;67012;-65
2023/09/03 04:39:04;;;;;;;;;;;;;;;23.96;65.66;97467.27;601519;236;62877;-65
2023/09/03 04:41:33;;;;;;;;;;;;;;;23.95;65.50;97465.64;601488;236;67367;-65
2023/09/03 04:44:06;;;;;;;;;;;;;;;23.95;65.68;97461.06;601531;236;67191;-65
2023/09/03 04:46:34;;;;;;;;;;;;;;;23.95;65.42;97466.44;601359;236;65808;-65
2023/09/03 04:49:02;;;;;;;;;;;;;;;23.95;65.57;97461.06;601509;236;64660;-65
2023/09/03 04:51:37;;;;;;;;;;;;;;;23.95;65.57;97463.75;601487;236;67365;-65
2023/09/03 04:54:05;;;;;;;;;;;;;;;23.94;65.32;97462.16;601505;236;62672;-65
2023/09/03 04:56:33;;;;;;;;;;;;;;;23.96;65.68;97461.89;601513;236;67256;-65
2023/09/03 04:59:00;;;;;;;;;;;;;;;23.95;65.39;97460.27;601493;236;66796;-65
2023/09/03 05:01:28;;;;;;;;;;;;;;;23.95;65.70;97454.91;601511;236;62921;-65
2023/09/03 05:03:57;;;;;;;;;;;;;;;23.94;65.47;97456.79;601527;236;49313;-65
2023/09/03 05:06:25;;;;;;;;;;;;;;;23.95;65.72;97454.91;601505;236;67449;-65
2023/09/03 05:08:54;;;;;;;;;;;;;;;23.93;65.44;97456.00;601529;236;41994;-65
2023/09/03 05:11:23;;;;;;;;;;;;;;;23.94;65.57;97446.05;601454;236;67482;-65
2023/09/03 05:13:51;;;;;;;;;;;;;;;23.93;65.43;97453.31;601513;236;65783;-65
2023/09/03 05:16:19;;;;;;;;;;;;;;;23.94;65.33;97448.73;601459;236;65818;-65
2023/09/03 05:18:47;;;;;;;;;;;;;;;23.94;65.36;97446.05;601484;236;68007;-65
2023/09/03 05:21:15;;;;;;;;;;;;;;;23.93;65.36;97449.83;601509;236;66807;-65
2023/09/03 05:23:42;;;;;;;;;;;;;;;23.93;65.67;97450.63;601509;236;62678;-65
2023/09/03 05:26:10;;;;;;;;;;;;;;;23.93;65.56;97453.31;601490;236;67127;-65
2023/09/03 05:28:39;;;;;;;;;;;;;;;23.93;65.74;97458.68;601553;236;43736;-65
2023/09/03 05:31:10;;;;;;;;;;;;;;;23.93;65.59;97455.20;601496;236;65780;-65
2023/09/03 05:33:38;;;;;;;;;;;;;;;23.93;65.46;97447.14;601524;236;64787;-65
2023/09/03 05:36:05;;;;;;;;;;;;;;;23.92;65.33;97445.52;601510;236;67188;-68
2023/09/03 05:38:33;;;;;;;;;;;;;;;23.92;65.54;97451.69;601480;236;65017;-68
2023/09/03 05:41:02;;;;;;;;;;;;;;;23.92;65.88;97446.32;601482;236;66045;-68
2023/09/03 05:43:30;;;;;;;;;;;;;;;23.93;65.96;97452.52;601509;236;64664;-68
2023/09/03 05:46:00;;;;;;;;;;;;;;;23.92;65.93;97448.20;601475;236;65626;-68
2023/09/03 05:48:27;;;;;;;;;;;;;;;23.92;65.94;97450.89;601502;236;67680;-68
2023/09/03 05:50:59;;;;;;;;;;;;;;;23.91;65.68;97447.41;601508;236;44371;-68
2023/09/03 05:53:28;;;;;;;;;;;;;;;23.91;65.63;97446.61;601485;236;63169;-69
2023/09/03 05:56:07;;;;;;;;;;;;;;;23.91;65.60;97436.67;601496;236;67946;-69
2023/09/03 05:58:35;;;;;;;;;;;;;;;23.91;65.52;97436.67;601527;236;66544;-68
2023/09/03 06:01:07;;;;;;;;;;;;;;;23.92;65.41;97432.10;601494;236;65083;-68
2023/09/03 06:03:35;;;;;;;;;;;;;;;23.91;65.45;97425.94;601485;236;65201;-68
2023/09/03 06:06:09;;;;;;;;;;;;;;;23.91;65.71;97411.72;601462;236;67465;-68
2023/09/03 06:08:36;;;;;;;;;;;;;;;;;;601507;236;62877;-68
2023/09/03 06:11:02;;;;;;;;;;;;;;;;;;601531;236;63791;-68
2023/09/03 06:13:30;;;;;;;;;;;;;;;23.91;65.59;97422.45;601527;236;64928;-68
2023/09/03 06:15:57;;;;;;;;;;;;;;;;;;601414;236;65219;-68
2023/09/03 06:18:25;;;;;;;;;;;;;;;23.91;65.66;97425.94;601527;236;65927;-68
2023/09/03 06:20:53;;;;;;;;;;;;;;;23.89;65.42;97421.92;601498;236;66944;-68
2023/09/03 06:23:21;;;;;;;;;;;;;;;23.88;63.15;97429.19;601518;236;62663;-68
2023/09/03 06:25:49;;;;;;;;;;;;;;;23.91;64.11;97433.20;601461;236;67800;-69
2023/09/03 06:28:17;;;;;;;;;;;;;;;23.91;63.68;97431.30;601495;236;66903;-68
2023/09/03 06:30:45;;;;;;;;;;;;;;;23.92;64.85;97430.21;601461;236;65851;-68
2023/09/03 06:33:13;;;;;;;;;;;;;;;23.92;65.39;97424.84;601485;236;67452;-68
2023/09/03 06:35:40;;;;;;;;;;;;;;;23.93;65.52;97425.67;601487;236;64982;-68
2023/09/03 06:38:08;;;;;;;;;;;;;;;23.93;65.76;97434.52;601463;236;66086;-68
2023/09/03 06:40:35;;;;;;;;;;;;;;;23.93;65.94;97428.36;601502;236;67110;-69
2023/09/03 06:43:03;;;;;;;;;;;;;;;23.94;66.35;97432.63;601477;236;66902;-68
2023/09/03 06:45:30;;;;;;;;;;;;;;;23.95;66.44;97434.22;601481;236;64891;-68
2023/09/03 06:47:58;;;;;;;;;;;;;;;23.95;66.37;97436.91;601508;236;67148;-68
2023/09/03 06:50:25;;;;;;;;;;;;;;;23.94;66.41;97438.00;601489;236;66903;-68
2023/09/03 06:52:53;;;;;;;;;;;;;;;23.95;66.34;97439.59;601477;236;62659;-68
2023/09/03 06:55:21;;;;;;;;;;;;;;;23.95;66.32;97444.96;601466;236;65033;-68
2023/09/03 06:57:48;;;;;;;;;;;;;;;23.94;66.22;97443.37;601498;236;66840;-68
2023/09/03 07:00:16;;;;;;;;;;;;;;;23.94;65.99;97440.69;601476;236;62897;-69
2023/09/03 07:02:44;;;;;;;;;;;;;;;23.95;65.68;97434.22;601495;236;67069;-68
2023/09/03 07:05:11;;;;;;;;;;;;;;;23.96;65.90;97435.84;601431;236;66693;-68
2023/09/03 07:07:38;;;;;;;;;;;;;;;23.96;65.55;97445.78;601465;236;65026;-68
2023/09/03 07:10:06;;;;;;;;;;;;;;;23.96;65.84;97438.53;601462;236;67116;-68
2023/09/03 07:12:34;;;;;;;;;;;;;;;23.96;65.97;97445.78;601441;236;67534;-68
2023/09/03 07:15:01;;;;;;;;;;;;;;;23.96;65.40;97457.32;601379;236;64935;-68
2023/09/03 07:17:29;;;;;;;;;;;;;;;23.96;65.28;97451.95;601431;236;67148;-68
2023/09/03 07:19:56;;;;;;;;;;;;;;;23.97;65.59;97458.12;601410;236;67480;-68
2023/09/03 07:22:24;;;;;;;;;;;;;;;23.97;65.57;97458.91;601482;236;62757;-68
2023/09/03 07:24:57;;;;;;;;;;;;;;;23.97;65.54;97464.28;601398;236;67167;-68
2023/09/03 07:27:21;;;;;;;;;;;;;;;23.97;65.83;97464.28;601170;236;64601;-68
2023/09/03 07:29:52;;;;;;;;;;;;;;;23.98;65.81;97462.39;601425;236;65131;-68
2023/09/03 07:32:22;;;;;;;;;;;;;;;23.98;65.78;97460.53;601402;236;67056;-68
2023/09/03 07:34:50;;;;;;;;;;;;;;;23.97;65.91;97453.55;601418;236;64273;-68
2023/09/03 07:37:18;;;;;;;;;;;;;;;23.98;66.11;97454.34;601449;236;64991;-68
2023/09/03 07:39:46;;;;;;;;;;;;;;;23.98;65.85;97452.48;601431;236;66627;-68
2023/09/03 07:42:14;;;;;;;;;;;;;;;23.98;65.84;97452.48;601467;236;67232;-68
2023/09/03 07:44:41;;;;;;;;;;;;;;;23.98;66.08;97455.16;601433;236;64914;-68
2023/09/03 07:47:09;;;;;;;;;;;;;;;23.98;66.14;97452.48;601486;236;67102;-68
2023/09/03 07:49:36;;;;;;;;;;;;;;;23.98;65.74;97454.34;601431;236;66631;-68
2023/09/03 07:52:04;;;;;;;;;;;;;;;23.99;65.98;97450.59;601437;236;65114;-68
2023/09/03 07:54:32;;;;;;;;;;;;;;;23.99;66.22;97455.96;601406;236;66751;-68
2023/09/03 07:56:59;;;;;;;;;;;;;;;23.98;66.33;97449.80;601458;236;66794;-68
2023/09/03 07:59:27;;;;;;;;;;;;;;;23.99;66.18;97456.76;601469;236;63679;-68
2023/09/03 08:01:54;;;;;;;;;;;;;;;23.99;66.30;97453.28;601541;236;67113;-68
2023/09/03 08:04:22;;;;;;;;;;;;;;;24.00;66.21;97452.19;601420;236;67033;-68
2023/09/03 08:06:49;;;;;;;;;;;;;;;23.99;66.22;97446.02;601450;236;65187;-68
2023/09/03 08:09:17;;;;;;;;;;;;;;;23.99;66.21;97443.34;601427;236;67072;-68
2023/09/03 08:11:44;;;;;;;;;;;;;;;24.00;66.50;97441.45;601470;236;66928;-68
2023/09/03 08:14:12;;;;;;;;;;;;;;;24.00;66.08;97441.45;601475;236;65036;-68
2023/09/03 08:16:39;;;;;;;;;;;;;;;24.00;66.10;97444.93;601410;236;67129;-68
2023/09/03 08:19:07;;;;;;;;;;;;;;;24.00;66.32;97436.88;601440;236;66903;-68
2023/09/03 08:21:35;;;;;;;;;;;;;;;24.01;66.18;97432.30;601465;236;64958;-68
2023/09/03 08:24:03;;;;;;;;;;;;;;;24.00;66.34;97439.56;601441;236;67309;-68
2023/09/03 08:26:30;;;;;;;;;;;;;;;24.00;66.29;97426.13;601522;236;64980;-68
2023/09/03 08:28:58;;;;;;;;;;;;;;;24.01;66.16;97433.13;601424;236;63663;-68
2023/09/03 08:31:25;;;;;;;;;;;;;;;24.01;66.35;97430.44;601380;236;64870;-68
2023/09/03 08:33:55;;;;;;;;;;;;;;;24.01;66.29;97429.62;601385;236;67545;-68
2023/09/03 08:36:24;;;;;;;;;;;;;;;24.01;66.28;97427.76;601453;236;63847;-68
2023/09/03 08:38:52;;;;;;;;;;;;;;;24.01;66.93;97427.76;601482;236;67301;-69
2023/09/03 08:41:22;;;;;;;;;;;;;;;24.01;66.71;97438.49;601455;236;65061;-69
2023/09/03 08:43:51;;;;;;;;;;;;;;;24.02;66.71;97428.55;601423;236;64864;-68
2023/09/03 08:46:20;;;;;;;;;;;;;;;24.00;66.90;97420.77;601448;236;67230;-68
2023/09/03 08:48:47;;;;;;;;;;;;;;;24.00;66.85;97418.08;601441;236;67268;-68
2023/09/03 08:51:16;;;;;;;;;;;;;;;24.01;66.96;97417.02;601497;236;65066;-68
2023/09/03 08:53:45;;;;;;;;;;;;;;;24.02;67.33;97425.87;601471;236;67732;-68
2023/09/03 08:56:13;;;;;;;;;;;;;;;24.01;67.06;97425.08;601425;236;64798;-68
2023/09/03 08:58:40;;;;;;;;;;;;;;;24.02;67.20;97417.81;601369;236;64924;-68
2023/09/03 09:01:09;;;;;;;;;;;;;;;24.01;67.23;97422.39;601411;236;67308;-68
2023/09/03 09:03:38;;;;;;;;;;;;;;;24.02;67.06;97412.45;601456;236;64878;-68
2023/09/03 09:06:07;;;;;;;;;;;;;;;24.01;67.11;97411.65;601463;236;63831;-68
2023/09/03 09:08:35;;;;;;;;;;;;;;;24.02;67.01;97415.13;601465;236;67117;-68
2023/09/03 09:11:05;;;;;;;;;;;;;;;24.02;66.90;97412.45;601424;236;64796;-68
2023/09/03 09:13:34;;;;;;;;;;;;;;;24.02;66.89;97407.08;601426;236;65711;-68
2023/09/03 09:16:01;;;;;;;;;;;;;;;24.02;66.96;97407.08;601431;236;66863;-68
2023/09/03 09:18:29;;;;;;;;;;;;;;;24.02;67.17;97402.50;601494;236;66903;-68
2023/09/03 09:20:57;;;;;;;;;;;;;;;24.01;67.06;97400.91;601433;236;64875;-68
2023/09/03 09:23:27;;;;;;;;;;;;;;;24.02;66.74;97407.08;601403;236;67267;-68
2023/09/03 09:25:58;;;;;;;;;;;;;;;24.02;66.74;97401.70;601458;236;67188;-68
2023/09/03 09:28:26;;;;;;;;;;;;;;;24.02;66.80;97389.08;601457;236;65486;-68
2023/09/03 09:30:55;;;;;;;;;;;;;;;24.02;66.86;97386.39;601502;236;65077;-68
2023/09/03 09:33:23;;;;;;;;;;;;;;;24.01;66.82;97387.48;601357;236;64849;-68
2023/09/03 09:35:50;;;;;;;;;;;;;;;24.02;66.99;97390.97;601435;236;63724;-68
2023/09/03 09:38:18;;;;;;;;;;;;;;;24.02;66.89;97390.97;601439;236;65772;-68
2023/09/03 09:40:46;;;;;;;;;;;;;;;24.03;66.79;97387.19;601479;236;64340;-68
2023/09/03 09:43:14;;;;;;;;;;;;;;;24.02;66.79;97386.39;601448;236;65262;-68
2023/09/03 09:45:53;;;;;;;;;;;;;;;24.02;66.82;97380.23;601480;236;67057;-67
2023/09/03 09:48:22;;;;;;;;;;;;;;;24.02;66.82;97389.08;601411;236;65171;-68
2023/09/03 09:50:50;;;;;;;;;;;;;;;24.02;66.81;97372.17;601436;236;62744;-68
2023/09/03 09:53:25;;;;;;;;;;;;;;;24.02;66.80;97375.66;601460;236;64908;-68
2023/09/03 09:55:59;;;;;;;;;;;;;;;24.01;66.82;97360.64;601423;236;66930;-68
2023/09/03 09:58:37;;;;;;;;;;;;;;;24.01;66.84;97363.33;601441;236;65362;-67
2023/09/03 10:01:05;;;;;;;;;;;;;;;24.02;66.85;97354.17;601458;236;67404;-69
2023/09/03 10:03:45;;;;;;;;;;;;;;;24.02;66.77;97348.80;601447;236;66991;-69
2023/09/03 10:06:14;;;;;;;;;;;;;;;24.02;66.75;97348.80;601477;236;62955;-68
2023/09/03 10:08:42;;;;;;;;;;;;;;;24.02;66.74;97345.33;601425;236;66984;-68
2023/09/03 10:11:09;;;;;;;;;;;;;;;24.02;66.99;97343.44;601443;236;67014;-68
2023/09/03 10:13:42;;;;;;;;;;;;;;;24.01;67.29;97331.11;601387;236;64883;-67
2023/09/03 10:16:07;;;;;;;;;;;;;;;24.02;67.56;97326.53;601082;236;65011;-67
2023/09/03 10:18:42;;;;;;;;;;;;;;;24.03;67.79;97328.13;601457;236;66888;-68
2023/09/03 10:21:10;;;;;;;;;;;;;;;24.02;68.11;97318.48;601392;236;71168;-67
2023/09/03 10:23:42;;;;;;;;;;;;;;;24.01;67.46;97324.91;597865;236;67319;-65
2023/09/03 10:26:10;;;;;;;;;;;;;;;24.02;68.02;97319.28;600447;236;66880;-65
2023/09/03 10:28:39;;;;;;;;;;;;;;;24.02;67.56;97318.48;601495;236;64809;-65
2023/09/03 10:31:08;;;;;;;;;;;;;;;24.01;67.56;97317.69;601460;236;67138;-64
2023/09/03 10:33:35;;;;;;;;;;;;;;;24.01;67.33;97315.00;601426;236;67154;-65
2023/09/03 10:36:13;;;;;;;;;;;;;;;24.03;67.23;97317.39;601433;236;65042;-65
2023/09/03 10:38:41;;;;;;;;;;;;;;;24.03;67.21;97309.33;601407;236;65100;-64
2023/09/03 10:41:17;;;;;;;;;;;;;;;24.03;67.35;97309.33;601424;236;64744;-64
2023/09/03 10:43:48;;;;;;;;;;;;;;;24.03;67.20;97306.65;601448;236;62932;-64
2023/09/03 10:46:15;;;;;;;;;;;;;;;24.02;67.26;97308.54;601436;236;67348;-64
2023/09/03 10:48:53;;;;;;;;;;;;;;;24.02;67.43;97313.91;601413;236;64717;-64
2023/09/03 10:51:33;;;;;;;;;;;;;;;24.03;67.63;97306.65;601432;236;64975;-64
2023/09/03 10:54:18;;;;;;;;;;;;;;;24.02;67.34;97305.85;601418;236;67276;-64
2023/09/03 10:57:03;;;;;;;;;;;;;;;24.03;68.10;97296.70;601460;236;64770;-64
2023/09/03 10:59:49;;;;;;;;;;;;;;;24.03;67.91;97296.70;601426;236;62863;-64
2023/09/03 11:02:26;;;;;;;;;;;;;;;24.02;66.71;97297.80;601498;236;64900;-64
2023/09/03 11:05:12;;;;;;;;;;;;;;;24.02;67.20;97291.64;601430;236;65150;-64
2023/09/03 11:07:40;;;;;;;;;;;;;;;24.02;67.24;97291.64;601415;236;63174;-64
2023/09/03 11:10:25;;;;;;;;;;;;;;;24.01;67.15;97288.16;601424;236;67295;-64
2023/09/03 11:12:53;;;;;;;;;;;;;;;24.01;67.07;97280.10;601443;236;67112;-64
2023/09/03 11:15:21;;;;;;;;;;;;;;;24.02;67.16;97289.75;600660;236;64120;-65
2023/09/03 11:17:55;;;;;;;;;;;;;;;24.01;66.92;97277.42;598789;237;64732;-65
2023/09/03 11:20:33;;;;;;;;;;;;;;;24.02;67.06;97268.27;598845;237;64811;-65
2023/09/03 11:23:02;;;;;;;;;;;;;;;24.02;67.19;97268.27;598831;237;65107;-65
2023/09/03 11:25:34;;;;;;;;;;;;;;;24.01;67.12;97274.73;598775;237;64796;-64
2023/09/03 11:28:03;;;;;;;;;;;;;;;24.03;66.93;97269.06;598816;237;66844;-65
2023/09/03 11:30:30;;;;;;;;;;;;;;;24.02;66.97;97265.59;598785;237;62993;-65
2023/09/03 11:32:58;;;;;;;;;;;;;;;24.03;66.76;97269.06;598768;237;67518;-65
2023/09/03 11:35:26;;;;;;;;;;;;;;;24.03;67.45;97261.01;598865;237;66890;-64
2023/09/03 11:37:54;;;;;;;;;;;;;;;24.03;67.39;97253.75;598844;237;64860;-65
2023/09/03 11:40:26;;;;;;;;;;;;;;;24.04;67.68;97254.58;598822;237;65719;-65
2023/09/03 11:42:54;;;;;;;;;;;;;;;24.04;67.64;97251.89;598769;237;66919;-65
2023/09/03 11:45:21;;;;;;;;;;;;;;;24.03;67.43;97253.75;598844;237;65341;-65
2023/09/03 11:47:49;;;;;;;;;;;;;;;24.03;67.52;97243.02;598911;237;64183;-65
2023/09/03 11:50:18;;;;;;;;;;;;;;;24.03;67.40;97243.02;598813;237;66677;-65
2023/09/03 11:52:49;;;;;;;;;;;;;;;24.04;68.17;97233.89;598842;237;65116;-65
2023/09/03 11:55:17;;;;;;;;;;;;;;;24.03;66.24;97236.84;598794;237;64879;-65
2023/09/03 11:57:46;;;;;;;;;;;;;;;24.04;67.26;97231.20;598828;237;64661;-64
2023/09/03 12:00:15;;;;;;;;;;;;;;;24.05;67.45;97224.74;598906;237;62664;-65
2023/09/03 12:02:42;;;;;;;;;;;;;;;24.04;67.22;97223.16;598841;237;66585;-64
2023/09/03 12:05:10;;;;;;;;;;;;;;;24.05;67.70;97223.95;598828;237;65432;-64
2023/09/03 12:07:38;;;;;;;;;;;;;;;24.05;68.07;97224.74;598853;237;65324;-65
2023/09/03 12:10:06;;;;;;;;;;;;;;;24.05;68.00;97213.21;598796;237;67850;-65
2023/09/03 12:12:33;;;;;;;;;;;;;;;24.04;67.87;97212.41;598846;237;67020;-65
2023/09/03 12:15:01;;;;;;;;;;;;;;;24.04;67.44;97209.73;599191;236;62979;-65
2023/09/03 12:17:28;;;;;;;;;;;;;;;24.05;67.55;97210.52;601463;236;64568;-65
2023/09/03 12:19:58;;;;;;;;;;;;;;;24.05;67.62;97197.09;601439;236;65240;-65
2023/09/03 12:22:27;;;;;;;;;;;;;;;24.05;67.83;97192.52;601443;236;65056;-65
2023/09/03 12:24:55;;;;;;;;;;;;;;;24.05;67.75;97186.36;601426;236;67306;-65
2023/09/03 12:27:23;;;;;;;;;;;;;;;24.05;68.28;97187.16;601497;236;67163;-65
2023/09/03 12:29:52;;;;;;;;;;;;;;;24.06;68.30;97188.77;601451;236;62664;-65
2023/09/03 12:32:20;;;;;;;;;;;;;;;24.06;67.98;97182.58;601400;236;65053;-65
2023/09/03 12:34:52;;;;;;;;;;;;;;;24.05;68.12;97179.10;600943;236;64788;-65
2023/09/03 12:37:19;;;;;;;;;;;;;;;24.06;67.78;97171.84;601437;236;65223;-65
2023/09/03 12:39:47;;;;;;;;;;;;;;;24.05;67.45;97172.94;601516;236;66992;-65
2023/09/03 12:42:14;;;;;;;;;;;;;;;24.05;67.44;97171.05;601437;236;64854;-65
2023/09/03 12:44:42;;;;;;;;;;;;;;;24.05;67.55;97173.73;601442;236;63788;-65
2023/09/03 12:47:10;;;;;;;;;;;;;;;24.05;67.33;97172.94;601448;236;67126;-65
2023/09/03 12:49:38;;;;;;;;;;;;;;;24.05;67.31;97171.05;601430;236;66928;-65
2023/09/03 12:52:05;;;;;;;;;;;;;;;24.05;67.24;97171.05;601487;236;64896;-65
2023/09/03 12:54:34;;;;;;;;;;;;;;;24.06;67.55;97167.30;601442;236;67114;-65
2023/09/03 12:57:01;;;;;;;;;;;;;;;24.05;67.02;97165.67;601427;236;64627;-65